Time;durP1;ratioP1;P1;durP2;ratioP2;P2;SDS_P1;SDS_P2;PMS_P1;PMS_P2;Temp;Humidity;BMP_temperature;BMP_pressure;BME280_temperature;BME280_humidity;BME280_pressure;Samples;Min_cycle;Max_cycle;Signal;HPM_P1;HPM_P2
2022/09/28 00:00:46;;;;;;;122.90;116.60;;;;;;;18.38;59.86;99034.71;117223;1184;21855;-67
2022/09/28 00:03:13;;;;;;;118.40;112.50;;;;;;;18.31;59.90;99030.55;117368;1185;24249;-67
2022/09/28 00:05:40;;;;;;;119.00;113.00;;;;;;;18.19;60.05;99032.39;117287;1186;22928;-67
2022/09/28 00:08:07;;;;;;;124.60;118.30;;;;;;;18.12;60.11;99030.52;117348;1185;24175;-67
2022/09/28 00:10:34;;;;;;;115.40;109.30;;;;;;;18.05;60.18;99027.96;117404;1182;22180;-60
2022/09/28 00:13:02;;;;;;;116.20;110.40;;;;;;;17.98;60.11;99024.33;117134;1186;23560;-67
2022/09/28 00:15:29;;;;;;;117.30;111.30;;;;;;;17.91;60.23;99024.02;117086;1186;23614;-60
2022/09/28 00:17:56;;;;;;;115.60;109.70;;;;;;;17.85;60.14;99021.75;117068;1187;23582;-67
2022/09/28 00:20:23;;;;;;;116.50;110.30;;;;;;;17.79;60.19;99024.59;117227;1184;24243;-62
2022/09/28 00:22:50;;;;;;;108.50;103.00;;;;;;;17.75;60.24;99020.95;117358;1185;23594;-61
2022/09/28 00:25:20;;;;;;;108.80;103.30;;;;;;;17.70;60.11;99016.68;117144;1185;23592;-67
2022/09/28 00:27:50;;;;;;;106.00;100.20;;;;;;;17.63;60.15;99010.57;117155;1188;23554;-67
2022/09/28 00:30:17;;;;;;;99.80;94.40;;;;;;;17.56;60.16;99002.13;117293;1185;21977;-68
2022/09/28 00:32:44;;;;;;;99.10;94.10;;;;;;;17.46;60.02;99004.00;117154;1186;23653;-60
2022/09/28 00:35:13;;;;;;;96.60;91.70;;;;;;;17.36;60.06;99005.15;117094;1186;23582;-60
2022/09/28 00:37:40;;;;;;;97.00;92.00;;;;;;;17.28;60.06;99004.55;117179;1184;23570;-60
2022/09/28 00:40:07;;;;;;;98.00;92.80;;;;;;;17.20;60.01;99007.88;117186;1184;21860;-67
2022/09/28 00:42:35;;;;;;;94.00;89.00;;;;;;;17.13;60.14;99010.98;117076;1186;22037;-67
2022/09/28 00:45:02;;;;;;;96.70;91.40;;;;;;;17.06;60.12;99013.86;117102;1187;23976;-67
2022/09/28 00:47:32;;;;;;;87.20;82.70;;;;;;;17.00;60.04;99011.75;117136;1187;23556;-61
2022/09/28 00:50:02;;;;;;;82.70;78.20;;;;;;;16.94;59.88;99015.65;117113;1187;22932;-67
2022/09/28 00:52:35;;;;;;;88.80;84.10;;;;;;;16.89;60.09;99025.86;117069;1187;21855;-60
2022/09/28 00:55:04;;;;;;;86.80;82.40;;;;;;;16.83;60.13;99025.14;117169;1186;23526;-68
2022/09/28 00:57:31;;;;;;;81.20;77.00;;;;;;;16.77;60.21;99032.02;117099;1188;23592;-68
2022/09/28 00:59:58;;;;;;;82.50;78.20;;;;;;;16.73;60.25;99030.55;117340;1186;21864;-60
2022/09/28 01:02:25;;;;;;;77.20;73.00;;;;;;;16.70;60.37;99032.64;117172;1186;23570;-60
2022/09/28 01:04:52;;;;;;;82.60;78.20;;;;;;;16.68;60.28;99032.62;117096;1182;23475;-60
2022/09/28 01:07:19;;;;;;;84.90;80.40;;;;;;;16.64;60.36;99042.55;117248;1185;23560;-60
2022/09/28 01:09:47;;;;;;;82.20;77.90;;;;;;;16.62;60.26;99042.67;117137;1188;23585;-60
2022/09/28 01:12:15;;;;;;;79.40;75.30;;;;;;;16.59;60.36;99042.30;117231;1186;24155;-67
2022/09/28 01:14:42;;;;;;;78.60;74.20;;;;;;;16.56;60.40;99043.39;117203;1185;23567;-67
2022/09/28 01:17:16;;;;;;;82.50;78.00;;;;;;;16.52;60.33;99042.40;117345;1184;23023;-60
2022/09/28 01:20:36;;;;;;;76.80;72.70;;;;;;;16.47;60.40;99036.98;117340;1184;23576;-67
2022/09/28 01:23:30;;;;;;;64.40;60.80;;;;;;;16.44;60.43;99038.05;117160;1185;21851;-67
2022/09/28 01:26:10;;;;;;;68.60;64.70;;;;;;;16.42;60.45;99037.27;117337;1185;23553;-59
2022/09/28 01:28:38;;;;;;;;;;;;;;;16.39;60.49;99034.09;117345;1185;23570;-68
2022/09/28 01:31:09;;;;;;;50.30;47.40;;;;;;;16.34;60.45;99030.11;117029;1186;23556;-67
2022/09/28 01:33:54;;;;;;;66.00;62.00;;;;;;;16.31;60.45;99034.17;117166;1186;23449;-68
2022/09/28 01:36:26;;;;;;;65.60;61.90;;;;;;;16.28;60.42;99032.27;117320;1185;24243;-60
2022/09/28 01:38:59;;;;;;;68.70;64.90;;;;;;;16.24;60.49;99032.13;117299;1185;21868;-60
2022/09/28 01:41:29;;;;;;;73.20;69.20;;;;;;;16.20;60.49;99034.11;117130;1186;23583;-68
2022/09/28 01:43:56;;;;;;;71.20;67.20;;;;;;;16.17;60.56;99030.17;117093;1186;23455;-68
2022/09/28 01:46:29;;;;;;;71.50;67.50;;;;;;;16.16;60.58;99026.71;117067;1186;23649;-67
2022/09/28 01:48:58;;;;;;;70.30;66.40;;;;;;;16.15;60.53;99031.05;117000;1187;22815;-60
2022/09/28 01:51:29;;;;;;;71.30;67.40;;;;;;;16.13;60.55;99031.87;117158;1186;21876;-59
2022/09/28 01:53:59;;;;;;;73.80;69.80;;;;;;;16.11;60.56;99028.79;117043;1187;23627;-59
2022/09/28 01:56:35;;;;;;;66.90;63.10;;;;;;;16.10;60.65;99027.23;117063;1186;24246;-67
2022/09/28 01:59:12;;;;;;;67.60;63.80;;;;;;;16.14;60.47;99027.54;117034;1186;23638;-59
2022/09/28 02:01:47;;;;;;;68.10;64.20;;;;;;;16.19;60.39;99033.06;117150;1186;22938;-67
2022/09/28 02:04:17;;;;;;;72.60;68.40;;;;;;;16.20;60.45;99036.40;117014;1187;22902;-67
2022/09/28 02:07:15;;;;;;;71.10;67.00;;;;;;;16.23;60.55;99039.44;117067;1187;23721;-67
2022/09/28 02:09:45;;;;;;;63.70;60.00;;;;;;;16.24;60.82;99039.55;117245;1185;22926;-67
2022/09/28 02:12:17;;;;;;;75.60;71.30;;;;;;;16.23;61.17;99040.88;117100;1184;21861;-59
2022/09/28 02:14:43;;;;;;;74.00;69.50;;;;;;;16.27;61.22;99036.73;117010;1190;21856;-59
2022/09/28 02:17:11;;;;;;;78.80;74.50;;;;;;;16.33;61.26;99031.42;116990;1188;23630;-59
2022/09/28 02:19:38;;;;;;;81.30;76.90;;;;;;;16.39;61.25;99028.60;117305;1185;23560;-59
2022/09/28 02:22:24;;;;;;;88.90;84.00;;;;;;;16.45;61.24;99031.48;117053;1187;21848;-64
2022/09/28 02:24:51;;;;;;;77.00;72.60;;;;;;;16.49;61.04;99030.15;117294;1185;24016;-61
2022/09/28 02:27:31;;;;;;;81.50;77.00;;;;;;;16.50;61.03;99024.77;117357;1184;22608;-67
2022/09/28 02:29:58;;;;;;;81.70;76.90;;;;;;;16.62;60.72;99028.13;117341;1185;23608;-67
2022/09/28 02:32:24;;;;;;;82.30;77.60;;;;;;;16.65;60.66;99024.61;117326;1185;24149;-68
2022/09/28 02:34:51;;;;;;;81.70;77.10;;;;;;;16.67;60.65;99025.39;117027;1187;23644;-67
2022/09/28 02:37:19;;;;;;;84.60;79.70;;;;;;;16.69;60.62;99021.39;117123;1185;23579;-67
2022/09/28 02:39:47;;;;;;;87.70;82.50;;;;;;;16.71;60.60;99016.29;117085;1185;23560;-65
2022/09/28 02:42:24;;;;;;;83.00;78.20;;;;;;;16.73;60.61;99019.38;117171;1185;23567;-59
2022/09/28 02:45:21;;;;;;;78.70;74.20;;;;;;;16.74;60.57;99020.20;117156;1188;23675;-61
2022/09/28 02:48:06;;;;;;;75.70;71.20;;;;;;;16.73;60.64;99022.05;117309;1185;23627;-67
2022/09/28 02:51:23;;;;;;;76.70;71.30;;;;;;;16.73;60.73;99019.94;117311;1185;24247;-67
2022/09/28 02:54:04;;;;;;;71.70;67.30;;;;;;;16.63;60.82;99018.89;117136;1186;24173;-68
2022/09/28 02:56:46;;;;;;;78.20;73.80;;;;;;;16.66;60.82;99016.96;117217;1186;23581;-67
2022/09/28 02:59:19;;;;;;;75.20;70.60;;;;;;;16.69;60.83;99010.73;117095;1186;23467;-60
2022/09/28 03:01:57;;;;;;;80.10;75.20;;;;;;;16.68;60.74;99006.55;117208;1186;23560;-59
2022/09/28 03:04:29;;;;;;;76.30;72.10;;;;;;;16.70;60.65;99005.21;117327;1185;23566;-60
2022/09/28 03:07:03;;;;;;;85.30;80.10;;;;;;;16.65;60.61;99004.06;117244;1186;23615;-67
2022/09/28 03:09:37;;;;;;;86.10;81.00;;;;;;;16.54;60.81;99005.44;117183;1183;22176;-67
2022/09/28 03:12:09;;;;;;;85.30;80.20;;;;;;;16.47;60.97;99002.30;117045;1187;22013;-59
2022/09/28 03:14:36;;;;;;;85.10;79.70;;;;;;;16.48;61.05;98999.77;117561;1186;24172;-66
2022/09/28 03:17:03;;;;;;;88.30;81.80;;;;;;;16.52;61.10;98993.33;117264;1185;23599;-66
2022/09/28 03:19:32;;;;;;;88.70;83.20;;;;;;;16.54;61.09;98994.10;117110;1186;23548;-66
2022/09/28 03:21:59;;;;;;;87.80;82.20;;;;;;;16.53;61.06;98990.64;117181;1187;21858;-60
2022/09/28 03:24:27;;;;;;;90.90;84.90;;;;;;;16.51;61.13;98984.73;117162;1185;21907;-60
2022/09/28 03:26:54;;;;;;;94.20;88.40;;;;;;;16.55;61.07;98980.25;117174;1186;24165;-59
2022/09/28 03:29:21;;;;;;;93.50;87.90;;;;;;;16.58;61.09;98975.11;117066;1186;23605;-60
2022/09/28 03:31:49;;;;;;;90.20;84.50;;;;;;;16.61;61.03;98976.83;117323;1186;24192;-59
2022/09/28 03:34:16;;;;;;;92.90;87.50;;;;;;;16.63;61.05;98983.46;117219;1186;23570;-67
2022/09/28 03:36:44;;;;;;;92.20;86.40;;;;;;;16.62;61.20;98990.09;117109;1186;23592;-60
2022/09/28 03:39:11;;;;;;;43.60;40.00;;;;;;;16.56;61.33;98995.74;117334;1185;21863;-60
2022/09/28 03:41:38;;;;;;;45.80;41.80;;;;;;;16.52;61.53;98997.08;117206;1186;24171;-60
2022/09/28 03:44:05;;;;;;;45.10;41.80;;;;;;;16.52;61.60;99000.23;117227;1186;24162;-67
2022/09/28 03:46:32;;;;;;;45.10;42.00;;;;;;;16.54;61.69;99000.14;117098;1187;23602;-61
2022/09/28 03:49:00;;;;;;;45.60;42.00;;;;;;;16.61;61.47;98995.41;117102;1187;23546;-60
2022/09/28 03:51:27;;;;;;;46.10;42.70;;;;;;;16.67;61.44;98996.32;117045;1186;22204;-60
2022/09/28 03:53:54;;;;;;;46.60;42.90;;;;;;;16.73;61.47;98993.17;117076;1187;24223;-67
2022/09/28 03:56:22;;;;;;;46.70;42.90;;;;;;;16.78;61.38;98996.23;117113;1186;24193;-60
2022/09/28 03:58:49;;;;;;;45.70;42.60;;;;;;;16.83;61.30;98998.22;117156;1186;24288;-60
2022/09/28 04:01:17;;;;;;;46.20;43.10;;;;;;;16.86;61.31;99002.48;117166;1186;24172;-67
2022/09/28 04:03:45;;;;;;;47.20;44.10;;;;;;;16.88;61.31;99004.14;117178;1186;21848;-60
2022/09/28 04:06:12;;;;;;;48.20;45.00;;;;;;;16.89;61.29;99009.03;117152;1187;24175;-60
2022/09/28 04:08:39;;;;;;;47.20;44.00;;;;;;;16.90;61.16;99007.70;117146;1186;22944;-67
2022/09/28 04:11:07;;;;;;;46.00;42.80;;;;;;;16.92;61.18;99003.91;117037;1185;23456;-60
2022/09/28 04:13:36;;;;;;;46.60;43.50;;;;;;;16.94;61.21;99000.39;117074;1187;24181;-67
2022/09/28 04:16:04;;;;;;;45.80;42.40;;;;;;;16.97;61.15;98999.22;117093;1187;23550;-67
2022/09/28 04:18:34;;;;;;;46.50;43.00;;;;;;;17.00;61.13;98998.86;117117;1187;23553;-67
2022/09/28 04:21:05;;;;;;;50.70;47.30;;;;;;;17.01;61.04;98997.52;117335;1185;23486;-60
2022/09/28 04:23:33;;;;;;;47.50;43.90;;;;;;;17.02;61.11;98997.98;117472;1185;21857;-60
2022/09/28 04:26:02;;;;;;;85.60;78.50;;;;;;;17.03;61.08;98999.89;117237;1185;24220;-61
2022/09/28 04:31:20;;;;;;;50.90;47.00;;;;;;;16.97;61.00;98996.73;117352;1185;23669;-60
2022/09/28 04:33:48;;;;;;;49.00;45.80;;;;;;;16.95;61.02;98999.10;117139;1186;21891;-67
2022/09/28 04:36:18;;;;;;;48.90;45.20;;;;;;;16.96;60.99;99000.45;117062;1187;24176;-67
2022/09/28 04:38:45;;;;;;;48.80;45.10;;;;;;;17.00;61.21;98997.77;117099;1187;24179;-60
2022/09/28 04:41:24;;;;;;;49.70;46.30;;;;;;;17.06;61.30;98996.17;117189;1186;23471;-67
2022/09/28 04:43:51;;;;;;;;;;;;;;;17.11;61.31;98996.38;117080;1186;24160;-60
2022/09/28 04:46:18;;;;;;;45.00;41.50;;;;;;;17.18;61.50;98994.00;117119;1186;23549;-60
2022/09/28 04:48:45;;;;;;;48.90;45.50;;;;;;;17.26;61.42;98995.10;117253;1187;23563;-61
2022/09/28 04:51:14;;;;;;;52.20;48.50;;;;;;;17.33;61.50;98995.71;117082;1186;24231;-61
2022/09/28 04:53:41;;;;;;;54.50;50.60;;;;;;;17.42;61.56;98998.20;117043;1187;23496;-60
2022/09/28 04:56:12;;;;;;;55.30;51.40;;;;;;;17.52;61.95;98999.91;117114;1187;23483;-60
2022/09/28 04:58:41;;;;;;;62.00;57.50;;;;;;;17.65;62.18;98998.02;117021;1189;24246;-67
2022/09/28 05:01:14;;;;;;;75.50;69.50;;;;;;;17.79;62.46;99000.47;117075;1187;21865;-60
2022/09/28 05:03:41;;;;;;;84.10;77.70;;;;;;;17.94;62.63;98999.52;117205;1187;23504;-60
2022/09/28 05:06:08;;;;;;;81.30;75.70;;;;;;;18.08;62.48;98994.94;117233;1186;23627;-61
2022/09/28 05:08:35;;;;;;;80.30;73.90;;;;;;;18.21;62.68;98992.47;117061;1187;23563;-60
2022/09/28 05:11:04;;;;;;;97.20;88.30;;;;;;;18.33;62.52;98989.58;117041;1186;23611;-67
2022/09/28 05:13:34;;;;;;;109.90;101.50;;;;;;;18.45;62.64;98983.30;117178;1182;22953;-60
2022/09/28 05:16:02;;;;;;;151.10;140.50;;;;;;;18.53;62.48;98979.57;117150;1186;23654;-60
2022/09/28 05:18:33;;;;;;;148.60;139.80;;;;;;;18.59;62.45;98976.50;117048;1186;23580;-67
2022/09/28 05:21:00;;;;;;;151.80;142.60;;;;;;;18.64;62.32;98977.19;117048;1186;22613;-60
2022/09/28 05:23:27;;;;;;;142.20;133.80;;;;;;;18.71;62.23;98987.05;117151;1186;23558;-60
2022/09/28 05:25:54;;;;;;;144.60;135.90;;;;;;;18.76;62.31;98987.56;117137;1186;22741;-60
2022/09/28 05:28:24;;;;;;;152.00;142.90;;;;;;;18.83;62.33;98988.55;117128;1186;23528;-60
2022/09/28 05:30:51;;;;;;;147.00;138.50;;;;;;;18.90;62.33;98986.27;117042;1187;22039;-60
2022/09/28 05:33:18;;;;;;;151.40;142.40;;;;;;;18.97;62.51;98984.42;117008;1187;22648;-68
2022/09/28 05:35:45;;;;;;;158.50;147.70;;;;;;;19.04;62.41;98972.52;116986;1187;23568;-68
2022/09/28 05:38:18;;;;;;;164.80;154.00;;;;;;;19.14;62.60;98972.38;117022;1183;23698;-68
2022/09/28 05:40:46;;;;;;;185.80;174.00;;;;;;;19.26;62.84;98971.20;117083;1187;23635;-61
2022/09/28 05:43:13;;;;;;;185.70;174.00;;;;;;;19.39;63.04;98975.61;117020;1186;23653;-60
2022/09/28 05:45:41;;;;;;;175.60;165.30;;;;;;;19.50;62.90;98979.29;117115;1186;23550;-67
2022/09/28 05:48:08;;;;;;;168.40;158.90;;;;;;;19.61;62.91;98979.95;117085;1186;21869;-68
2022/09/28 05:50:35;;;;;;;166.10;156.50;;;;;;;19.70;62.82;98981.92;117030;1186;21922;-60
2022/09/28 05:53:04;;;;;;;165.60;156.40;;;;;;;19.78;62.89;98985.30;117212;1186;21856;-61
2022/09/28 05:55:33;;;;;;;;;;;;;;;19.82;62.49;98989.96;117214;1186;22094;-61
2022/09/28 05:58:01;;;;;;;122.90;116.20;;;;;;;19.88;62.65;98994.89;117084;1187;23549;-70
2022/09/28 06:00:29;;;;;;;147.00;138.50;;;;;;;19.94;62.60;98992.87;117099;1186;23666;-61
2022/09/28 06:03:06;;;;;;;155.10;146.70;;;;;;;20.00;62.62;98987.98;117036;1186;21880;-61
2022/09/28 06:05:38;;;;;;;152.30;144.20;;;;;;;20.06;62.51;98986.48;117083;1186;23656;-61
2022/09/28 06:08:06;;;;;;;158.70;149.90;;;;;;;20.14;62.57;98985.73;117010;1187;23466;-68
2022/09/28 06:10:32;;;;;;;149.90;141.80;;;;;;;20.23;62.69;98985.41;117152;1186;23556;-61
2022/09/28 06:13:00;;;;;;;157.10;148.30;;;;;;;20.33;62.67;98984.82;117315;1184;22824;-69
2022/09/28 06:15:29;;;;;;;146.60;139.00;;;;;;;20.45;62.71;98986.30;117190;1185;22812;-69
2022/09/28 06:18:03;;;;;;;159.90;151.50;;;;;;;20.54;62.78;98989.48;117038;1188;21859;-69
2022/09/28 06:20:33;;;;;;;140.00;132.10;;;;;;;20.63;62.96;98992.04;117137;1185;22802;-62
2022/09/28 06:22:59;;;;;;;140.80;133.10;;;;;;;20.69;62.80;98994.66;117067;1187;21882;-69
2022/09/28 06:25:26;;;;;;;153.50;145.50;;;;;;;20.73;62.77;98991.99;117256;1185;22082;-69
2022/09/28 06:27:58;;;;;;;145.40;137.80;;;;;;;20.78;62.70;98992.48;117255;1185;23650;-61
2022/09/28 06:30:25;;;;;;;146.40;138.40;;;;;;;20.86;62.71;98994.95;117309;1185;24153;-69
2022/09/28 06:32:54;;;;;;;146.20;138.30;;;;;;;20.95;62.54;99000.14;117388;1185;21892;-61
2022/09/28 06:35:21;;;;;;;141.50;133.40;;;;;;;21.06;62.53;98998.38;117340;1187;23651;-62
2022/09/28 06:37:48;;;;;;;132.70;125.80;;;;;;;21.21;62.42;98994.70;117354;1185;21866;-68
2022/09/28 06:40:16;;;;;;;135.90;128.70;;;;;;;21.36;62.64;98994.42;117328;1185;24162;-59
2022/09/28 06:42:43;;;;;;;134.10;126.80;;;;;;;21.53;62.37;98994.54;117206;1186;21848;-60
2022/09/28 06:45:10;;;;;;;146.40;138.90;;;;;;;21.75;62.14;98986.04;117375;1185;23442;-60
2022/09/28 06:47:37;;;;;;;137.60;130.30;;;;;;;21.92;62.05;98976.98;117244;1185;24231;-60
2022/09/28 06:50:11;;;;;;;123.70;117.40;;;;;;;22.15;61.70;98976.36;117378;1185;23544;-67
2022/09/28 06:52:38;;;;;;;120.70;114.70;;;;;;;22.37;61.33;98977.77;117552;1183;24504;-67
2022/09/28 06:55:07;;;;;;;114.90;109.00;;;;;;;22.57;60.81;98981.30;117249;1185;21856;-67
2022/09/28 06:57:35;;;;;;;112.20;106.50;;;;;;;22.69;60.56;98977.98;117024;1187;23453;-68
2022/09/28 07:00:02;;;;;;;112.00;106.40;;;;;;;22.82;60.36;98976.31;117034;1187;21842;-61
2022/09/28 07:02:30;;;;;;;99.60;94.40;;;;;;;23.00;60.35;98972.65;117266;1189;24259;-67
2022/09/28 07:04:58;;;;;;;108.20;102.60;;;;;;;23.15;60.40;98964.00;117277;1189;21876;-61
2022/09/28 07:07:25;;;;;;;111.80;106.30;;;;;;;23.36;60.19;98959.02;117258;1186;24221;-61
2022/09/28 07:09:54;;;;;;;105.50;100.10;;;;;;;23.54;59.56;98954.56;117276;1186;23653;-67
2022/09/28 07:12:24;;;;;;;105.30;99.80;;;;;;;23.67;59.46;98951.65;117255;1188;21861;-61
2022/09/28 07:14:56;;;;;;;97.10;92.20;;;;;;;23.80;59.32;98953.31;117032;1185;22973;-60
2022/09/28 07:17:23;;;;;;;102.20;97.00;;;;;;;23.97;59.05;98955.78;117004;1187;23634;-68
2022/09/28 07:19:51;;;;;;;93.20;88.50;;;;;;;24.11;58.82;98963.08;117005;1187;23579;-68
2022/09/28 07:22:19;;;;;;;99.50;94.60;;;;;;;24.24;59.00;98958.89;116981;1186;22845;-69
2022/09/28 07:24:57;;;;;;;91.20;86.60;;;;;;;24.40;58.76;98956.70;117061;1186;23563;-62
2022/09/28 07:27:25;;;;;;;85.80;81.20;;;;;;;24.54;57.97;98953.94;117126;1189;23708;-61
2022/09/28 07:29:55;;;;;;;;;;;;;;;24.58;57.60;98947.72;117060;1187;21857;-61
2022/09/28 07:32:22;;;;;;;80.20;76.20;;;;;;;24.58;57.83;98947.45;116935;1189;22812;-61
2022/09/28 07:34:49;;;;;;;77.10;73.10;;;;;;;24.59;57.47;98952.23;117117;1186;23563;-61
2022/09/28 07:37:17;;;;;;;78.10;74.00;;;;;;;24.53;57.21;98951.70;117149;1186;23541;-68
2022/09/28 07:42:31;;;;;;;73.10;69.50;;;;;;;24.40;56.80;98949.69;117082;1186;22821;-62
2022/09/28 07:44:58;;;;;;;77.80;73.80;;;;;;;24.36;56.97;98946.86;117126;1186;22303;-68
2022/09/28 07:47:26;;;;;;;75.90;72.10;;;;;;;24.40;56.99;98949.21;117074;1184;21864;-61
2022/09/28 07:49:59;;;;;;;75.30;71.50;;;;;;;24.45;56.83;98947.82;116985;1187;24171;-61
2022/09/28 07:52:27;;;;;;;75.70;71.90;;;;;;;24.49;56.70;98950.54;117116;1187;23640;-61
2022/09/28 07:54:55;;;;;;;84.60;80.20;;;;;;;24.51;56.82;98955.47;117144;1187;23558;-68
2022/09/28 07:57:22;;;;;;;72.80;69.00;;;;;;;24.60;56.91;98956.42;117113;1186;23573;-68
2022/09/28 07:59:52;;;;;;;69.40;65.70;;;;;;;24.65;55.55;98963.51;117053;1187;21874;-68
2022/09/28 08:02:20;;;;;;;74.60;70.40;;;;;;;24.57;55.59;98967.98;117057;1187;23622;-62
2022/09/28 08:04:48;;;;;;;77.40;73.30;;;;;;;24.47;55.57;98970.77;117253;1185;23320;-61
2022/09/28 08:07:16;;;;;;;70.50;66.60;;;;;;;24.38;55.87;98970.48;117851;1186;22814;-61
2022/09/28 08:09:49;;;;;;;65.30;61.90;;;;;;;24.30;55.36;98969.23;117266;1186;23560;-61
2022/09/28 08:12:18;;;;;;;62.80;59.60;;;;;;;24.24;55.55;98965.65;117114;1187;23583;-68
2022/09/28 08:14:46;;;;;;;65.80;62.40;;;;;;;24.20;55.68;98965.09;118190;1185;21934;-69
2022/09/28 08:17:14;;;;;;;63.60;60.20;;;;;;;24.22;55.83;98961.95;117331;1186;23573;-68
2022/09/28 08:22:31;;;;;;;55.50;52.80;;;;;;;24.52;54.94;98960.40;117375;1185;23576;-61
2022/09/28 08:24:57;;;;;;;58.00;55.00;;;;;;;24.73;54.41;98962.60;117322;1185;22832;-69
2022/09/28 08:27:25;;;;;;;55.90;52.90;;;;;;;24.78;53.96;98966.04;117228;1188;21849;-61
2022/09/28 08:29:52;;;;;;;56.10;53.30;;;;;;;24.75;53.89;98968.71;117241;1186;23560;-66
2022/09/28 08:32:20;;;;;;;51.90;49.20;;;;;;;24.74;54.18;98970.41;117205;1186;23598;-63
2022/09/28 08:34:47;;;;;;;51.10;48.40;;;;;;;24.73;53.96;98974.08;117319;1186;23097;-68
2022/09/28 08:37:14;;;;;;;49.10;46.60;;;;;;;24.73;52.22;98978.06;117365;1185;23548;-61
2022/09/28 08:39:41;;;;;;;51.80;49.10;;;;;;;24.80;52.67;98974.00;117243;1186;23544;-68
2022/09/28 08:42:36;;;;;;;50.50;48.00;;;;;;;24.85;52.97;98971.88;117234;1186;22040;-61
2022/09/28 08:45:06;;;;;;;51.20;48.50;;;;;;;24.89;52.46;98972.58;117225;1186;22629;-68
2022/09/28 08:51:06;;;;;;;46.30;43.90;;;;;;;25.22;51.42;98977.36;117244;1185;23621;-62
2022/09/28 08:53:39;;;;;;;45.80;43.50;;;;;;;25.44;51.69;98979.27;117232;1187;21923;-62
2022/09/28 08:56:11;;;;;;;49.40;46.90;;;;;;;25.62;50.28;98981.65;117251;1187;22239;-62
2022/09/28 08:58:40;;;;;;;50.20;47.60;;;;;;;25.77;48.46;98987.92;117191;1186;22160;-62
2022/09/28 09:01:08;;;;;;;48.00;45.40;;;;;;;25.84;50.35;98981.66;117525;1186;23627;-68
2022/09/28 09:03:38;;;;;;;45.80;43.50;;;;;;;25.88;51.11;98980.05;117162;1188;23652;-62
2022/09/28 09:06:08;;;;;;;50.80;48.20;;;;;;;25.87;50.84;98982.81;117108;1186;23634;-61
2022/09/28 09:08:59;;;;;;;49.50;46.70;;;;;;;25.86;50.97;98984.73;117166;1186;22734;-64
2022/09/28 09:11:26;;;;;;;49.50;47.00;;;;;;;25.80;50.55;98984.60;117241;1186;23577;-68
2022/09/28 09:14:27;;;;;;;46.60;44.30;;;;;;;25.73;50.01;98990.88;117363;1186;23662;-68
2022/09/28 09:17:00;;;;;;;46.50;44.20;;;;;;;25.73;49.80;98993.70;117036;1190;22918;-67
2022/09/28 09:19:37;;;;;;;44.00;41.90;;;;;;;25.85;49.54;98990.53;117301;1185;23564;-62
2022/09/28 09:22:17;;;;;;;47.60;45.40;;;;;;;26.00;47.90;98987.84;117382;1185;24203;-68
2022/09/28 09:24:48;;;;;;;46.40;44.10;;;;;;;26.15;49.37;98989.23;117236;1189;23580;-62
2022/09/28 09:27:39;;;;;;;53.40;50.80;;;;;;;26.22;49.25;98993.25;117223;1187;23554;-63
2022/09/28 09:30:12;;;;;;;38.00;36.10;;;;;;;26.13;48.87;98994.83;117269;1186;23560;-62
2022/09/28 09:32:52;;;;;;;45.40;43.00;;;;;;;25.94;48.94;98995.11;117206;1188;22999;-67
2022/09/28 09:35:32;;;;;;;45.90;43.60;;;;;;;25.72;49.05;98999.73;117176;1186;23615;-62
2022/09/28 09:38:18;;;;;;;51.20;48.10;;;;;;;25.45;48.77;99000.92;117093;1187;22533;-62
2022/09/28 09:40:46;;;;;;;46.40;44.10;;;;;;;25.11;49.70;99003.36;117203;1185;21857;-67
2022/09/28 09:43:34;;;;;;;51.10;48.50;;;;;;;24.77;49.70;99007.96;117329;1185;21877;-62
2022/09/28 09:46:13;;;;;;;54.70;52.00;;;;;;;24.39;49.28;99009.32;117076;1188;21897;-62
2022/09/28 09:48:45;;;;;;;53.00;50.40;;;;;;;24.12;50.31;99013.55;117287;1189;23560;-62
2022/09/28 09:51:37;;;;;;;51.00;48.20;;;;;;;23.90;50.22;99016.00;117116;1187;23560;-61
2022/09/28 09:54:33;;;;;;;54.70;51.90;;;;;;;23.69;50.89;99020.35;117169;1186;21859;-68
2022/09/28 09:57:21;;;;;;;54.40;51.40;;;;;;;23.53;51.08;99026.43;117248;1186;21859;-70
2022/09/28 09:59:51;;;;;;;56.60;52.00;;;;;;;23.44;51.36;99031.91;117069;1186;24227;-70
2022/09/28 10:02:26;;;;;;;50.60;47.80;;;;;;;23.39;51.66;99034.29;117085;1183;21868;-68
2022/09/28 10:04:56;;;;;;;52.60;50.00;;;;;;;23.39;51.56;99031.80;117177;1186;22314;-61
2022/09/28 10:07:41;;;;;;;55.90;53.00;;;;;;;23.37;51.38;99033.02;117027;1186;22979;-71
2022/09/28 10:10:16;;;;;;;55.80;53.10;;;;;;;23.37;51.66;99035.75;116953;1187;23605;-61
2022/09/28 10:12:44;;;;;;;49.90;47.30;;;;;;;23.42;51.29;99038.30;117087;1188;21870;-67
2022/09/28 10:15:14;;;;;;;53.80;50.90;;;;;;;23.46;50.92;99037.20;117353;1189;21878;-72
2022/09/28 10:17:41;;;;;;;52.40;49.80;;;;;;;23.56;51.44;99039.39;116964;1186;21895;-71
2022/09/28 10:20:12;;;;;;;53.10;50.40;;;;;;;23.65;51.04;99040.44;116831;1189;23563;-70
2022/09/28 10:22:39;;;;;;;52.80;50.10;;;;;;;23.65;50.82;99044.74;117444;1188;23570;-70
2022/09/28 10:25:08;;;;;;;53.80;50.50;;;;;;;23.65;51.02;99045.98;117229;1186;21864;-61
2022/09/28 10:27:39;;;;;;;59.10;56.20;;;;;;;23.63;51.05;99048.80;117099;1188;21883;-67
2022/09/28 10:30:09;;;;;;;53.60;50.90;;;;;;;23.55;51.05;99045.80;117061;1187;22986;-62
2022/09/28 10:32:38;;;;;;;55.70;52.90;;;;;;;23.49;51.46;99046.70;117158;1185;23557;-62
2022/09/28 10:35:17;;;;;;;57.00;54.20;;;;;;;23.44;51.42;99048.10;117367;1186;23642;-62
2022/09/28 10:37:48;;;;;;;52.20;49.60;;;;;;;23.37;51.46;99050.76;117312;1186;21900;-62
2022/09/28 10:40:29;;;;;;;54.00;51.20;;;;;;;23.34;51.33;99050.63;116970;1189;23627;-63
2022/09/28 10:43:05;;;;;;;54.40;51.10;;;;;;;23.34;51.43;99048.84;117365;1189;21864;-69
2022/09/28 10:45:35;;;;;;;50.90;48.30;;;;;;;23.37;51.54;99045.56;117221;1186;23576;-61
2022/09/28 10:48:04;;;;;;;52.50;49.60;;;;;;;23.41;51.60;99047.83;117036;1189;21866;-72
2022/09/28 10:50:33;;;;;;;60.30;57.20;;;;;;;23.46;51.48;99050.62;117145;1187;21864;-72
2022/09/28 10:53:21;;;;;;;53.80;51.10;;;;;;;23.48;51.54;99047.98;117245;1186;24178;-62
2022/09/28 10:56:00;;;;;;;50.70;48.10;;;;;;;23.49;51.13;99042.55;117397;1184;22945;-72
2022/09/28 10:58:39;;;;;;;55.20;52.30;;;;;;;23.47;51.15;99050.58;117289;1186;23560;-71
2022/09/28 11:01:09;;;;;;;54.50;51.70;;;;;;;23.41;50.89;99055.41;117318;1185;21891;-62
2022/09/28 11:03:55;;;;;;;59.50;56.20;;;;;;;23.39;51.52;99051.14;117216;1186;21858;-69
2022/09/28 11:06:36;;;;;;;61.20;57.90;;;;;;;23.60;51.53;99049.80;117113;1186;23574;-62
2022/09/28 11:09:08;;;;;;;56.00;53.20;;;;;;;23.91;51.18;99043.19;117205;1184;23580;-70
2022/09/28 11:11:41;;;;;;;52.80;50.00;;;;;;;24.15;51.10;99038.16;118054;1185;23451;-62
2022/09/28 11:14:34;;;;;;;53.40;50.60;;;;;;;24.46;50.49;99034.09;117059;1187;23560;-62
2022/09/28 11:17:14;;;;;;;53.60;50.80;;;;;;;24.78;50.41;99036.41;117115;1188;21899;-69
2022/09/28 11:19:42;;;;;;;57.10;54.10;;;;;;;25.02;49.87;99039.73;116993;1187;23630;-62
2022/09/28 11:22:43;;;;;;;52.80;50.10;;;;;;;25.21;49.69;99043.33;116930;1186;21849;-69
2022/09/28 11:25:13;;;;;;;48.10;45.40;;;;;;;25.39;49.45;99044.23;117177;1186;23685;-64
2022/09/28 11:27:53;;;;;;;50.70;48.00;;;;;;;25.45;49.30;99037.69;117276;1185;23576;-63
2022/09/28 11:30:34;;;;;;;53.10;50.20;;;;;;;25.50;48.82;99037.43;117358;1185;23557;-69
2022/09/28 11:33:16;;;;;;;51.10;48.30;;;;;;;25.61;48.97;99040.80;117361;1186;22572;-63
2022/09/28 11:35:49;;;;;;;48.70;46.00;;;;;;;25.78;49.22;99041.55;117243;1186;21861;-68
2022/09/28 11:38:54;;;;;;;50.40;47.80;;;;;;;25.93;48.94;99040.60;117353;1186;24215;-63